Terminal Aerodrome Forecast
Issued by NWS Wilmington, OH

Current Version | Previous Version | Graphics & Text | Print | Product List | Glossary On
Versions: 1 2 3 4 5 6 7 8 9 10 11 12 13 14 15 16 17 18 19 20 21
000
FTUS41 KILN 240529
TAFDAY
TAF
KDAY 240529Z 2406/2506 15006KT P6SM OVC150
     FM241500 13006KT P6SM VCSH OVC050
     FM242000 12007KT 4SM SHRA OVC025
     FM250300 09006KT 4SM BR VCSH OVC015=

USA.gov is the U.S. government's official web portal to all federal, state and local government web resources and services.